Blooming Prairie, MN (55917)

2:04 PM CST on December 06, 2016 (GMT -0600)
BK Farm | | Change Station

Elev 1250 ft 43.75 °N, 93.04 °W | Updated 13 seconds ago

Light Snow
Light Snow
23.5 °F
Feels Like 9 °F
N
19.7
Wind Variable Wind from WSW
Gusts 22.6 mph

Today
High -- | Low -- °F
--% Chance of Precip.
Yesterday
High -- | Low -- °F
Precip. -- in
Pressure 29.74 in
Visibility 10.0 miles
Clouds Overcast 2600 ft
Windchill 9 °F
Dew Point -1 °F
Humidity 34%
Rainfall 0.00 in
Snow Depth Not available.
7:32 AM 4:34 PM
Waxing Crescent, 44% visible
METAR KTOB 061953Z AUTO 26021G30KT 10SM -SN OVC026 M06/M09 A2974 RMK AO2
Pressure 29.74 in
Visibility 10.0 miles
Clouds Overcast 2600 ft
Windchill 9 °F
Dew Point -1 °F
Humidity 34%
Rainfall 0.00 in
Snow Depth Not available.
7:32 AM 4:34 PM
Waxing Crescent, 44% visible
METAR KTOB 061953Z AUTO 26021G30KT 10SM -SN OVC026 M06/M09 A2974 RMK AO2

10-Day Weather Forecast

Almanac

Astronomy

Dec. 06, 2016 Rise Set
Actual Time
Civil Twilight
Nautical Twilight
Astronomical Twilight
Moon
Length of Visible Light
Length of Day
Tomorrow will be .
, % of the Moon is Illuminated

Today's Extremes

State Highs State Lows

Community

WunderPhotos

Upload Photos

1,956,022 photos uploaded!

WunderBlog® & News

Nearby

Air Quality

  Air Quality AQ Index Pollutant
Not available.

Snow Depth

Station Depth Elevation

Earthquake Activity

City Distance Mag. Time & Date
Minimum magnitude displayed is 2.5.

Coastal Water Temperatures

Place Temperature

Stations

Nearby Weather Stations

Station Location Temp. Windchill Dew Point Humidity Wind Precip. Elev Updated Type
                   

Watches & Warnings

There are currently no watches in effect.